sensor_id;sensor_type;location;lat;lon;timestamp;P1;durP1;ratioP1;P2;durP2;ratioP2
16502;SDS011;53067;48.114;11.694;2023-03-08T00:00:10;10.03;;;8.27;;
16502;SDS011;53067;48.114;11.694;2023-03-08T00:02:37;9.80;;;6.80;;
16502;SDS011;53067;48.114;11.694;2023-03-08T00:05:08;10.53;;;7.67;;
16502;SDS011;53067;48.114;11.694;2023-03-08T00:07:55;11.97;;;7.37;;
16502;SDS011;53067;48.114;11.694;2023-03-08T00:10:22;10.43;;;6.90;;
16502;SDS011;53067;48.114;11.694;2023-03-08T00:12:50;10.67;;;7.50;;
16502;SDS011;53067;48.114;11.694;2023-03-08T00:15:17;12.50;;;7.40;;
16502;SDS011;53067;48.114;11.694;2023-03-08T00:17:45;12.97;;;7.30;;
16502;SDS011;53067;48.114;11.694;2023-03-08T00:20:12;9.50;;;6.77;;
16502;SDS011;53067;48.114;11.694;2023-03-08T00:22:40;8.97;;;7.10;;
16502;SDS011;53067;48.114;11.694;2023-03-08T00:25:08;11.07;;;7.10;;
16502;SDS011;53067;48.114;11.694;2023-03-08T00:27:36;11.50;;;7.00;;
16502;SDS011;53067;48.114;11.694;2023-03-08T00:30:04;10.77;;;6.37;;
16502;SDS011;53067;48.114;11.694;2023-03-08T00:32:32;11.13;;;7.30;;
16502;SDS011;53067;48.114;11.694;2023-03-08T00:35:00;8.33;;;6.67;;
16502;SDS011;53067;48.114;11.694;2023-03-08T00:37:27;7.70;;;6.20;;
16502;SDS011;53067;48.114;11.694;2023-03-08T00:39:55;7.73;;;6.20;;
16502;SDS011;53067;48.114;11.694;2023-03-08T00:42:22;7.90;;;6.03;;
16502;SDS011;53067;48.114;11.694;2023-03-08T00:44:50;9.80;;;7.57;;
16502;SDS011;53067;48.114;11.694;2023-03-08T00:47:18;8.57;;;6.40;;
16502;SDS011;53067;48.114;11.694;2023-03-08T00:49:45;10.10;;;7.03;;
16502;SDS011;53067;48.114;11.694;2023-03-08T00:52:13;11.80;;;7.37;;
16502;SDS011;53067;48.114;11.694;2023-03-08T00:54:40;8.33;;;6.00;;
16502;SDS011;53067;48.114;11.694;2023-03-08T00:57:08;9.73;;;6.10;;
16502;SDS011;53067;48.114;11.694;2023-03-08T00:59:35;9.43;;;6.90;;
16502;SDS011;53067;48.114;11.694;2023-03-08T01:02:03;9.53;;;7.07;;
16502;SDS011;53067;48.114;11.694;2023-03-08T01:04:31;6.90;;;5.90;;
16502;SDS011;53067;48.114;11.694;2023-03-08T01:06:59;6.57;;;5.87;;
16502;SDS011;53067;48.114;11.694;2023-03-08T01:09:48;8.70;;;6.67;;
16502;SDS011;53067;48.114;11.694;2023-03-08T01:12:17;12.00;;;6.60;;
16502;SDS011;53067;48.114;11.694;2023-03-08T01:14:46;8.47;;;6.17;;
16502;SDS011;53067;48.114;11.694;2023-03-08T01:17:14;9.10;;;5.90;;
16502;SDS011;53067;48.114;11.694;2023-03-08T01:19:41;8.67;;;6.07;;
16502;SDS011;53067;48.114;11.694;2023-03-08T01:22:09;9.73;;;6.83;;
16502;SDS011;53067;48.114;11.694;2023-03-08T01:24:37;6.87;;;5.77;;
16502;SDS011;53067;48.114;11.694;2023-03-08T01:27:04;7.13;;;5.70;;
16502;SDS011;53067;48.114;11.694;2023-03-08T01:29:32;8.53;;;6.47;;
16502;SDS011;53067;48.114;11.694;2023-03-08T01:31:59;8.97;;;6.70;;
16502;SDS011;53067;48.114;11.694;2023-03-08T01:34:27;10.37;;;5.93;;
16502;SDS011;53067;48.114;11.694;2023-03-08T01:36:54;10.97;;;6.40;;
16502;SDS011;53067;48.114;11.694;2023-03-08T01:39:22;7.40;;;6.10;;
16502;SDS011;53067;48.114;11.694;2023-03-08T01:41:49;10.13;;;6.93;;
16502;SDS011;53067;48.114;11.694;2023-03-08T01:44:18;6.87;;;5.57;;
16502;SDS011;53067;48.114;11.694;2023-03-08T01:46:48;8.80;;;6.23;;
16502;SDS011;53067;48.114;11.694;2023-03-08T01:49:17;7.23;;;6.40;;
16502;SDS011;53067;48.114;11.694;2023-03-08T01:51:57;7.20;;;6.27;;
16502;SDS011;53067;48.114;11.694;2023-03-08T01:54:30;8.90;;;5.87;;
16502;SDS011;53067;48.114;11.694;2023-03-08T01:57:00;8.17;;;6.17;;
16502;SDS011;53067;48.114;11.694;2023-03-08T01:59:31;8.87;;;6.40;;
16502;SDS011;53067;48.114;11.694;2023-03-08T02:02:00;8.33;;;6.37;;
16502;SDS011;53067;48.114;11.694;2023-03-08T02:04:29;9.97;;;6.13;;
16502;SDS011;53067;48.114;11.694;2023-03-08T02:06:57;8.60;;;6.40;;
16502;SDS011;53067;48.114;11.694;2023-03-08T02:09:24;9.90;;;6.50;;
16502;SDS011;53067;48.114;11.694;2023-03-08T02:11:53;7.43;;;6.57;;
16502;SDS011;53067;48.114;11.694;2023-03-08T02:14:24;10.20;;;6.80;;
16502;SDS011;53067;48.114;11.694;2023-03-08T02:16:52;8.87;;;6.50;;
16502;SDS011;53067;48.114;11.694;2023-03-08T02:19:22;9.83;;;6.60;;
16502;SDS011;53067;48.114;11.694;2023-03-08T02:21:50;9.43;;;6.30;;
16502;SDS011;53067;48.114;11.694;2023-03-08T02:24:19;8.30;;;6.33;;
16502;SDS011;53067;48.114;11.694;2023-03-08T02:26:49;8.27;;;6.33;;
16502;SDS011;53067;48.114;11.694;2023-03-08T02:29:19;7.10;;;6.30;;
16502;SDS011;53067;48.114;11.694;2023-03-08T02:31:46;9.43;;;6.40;;
16502;SDS011;53067;48.114;11.694;2023-03-08T02:34:14;8.17;;;6.27;;
16502;SDS011;53067;48.114;11.694;2023-03-08T02:36:41;8.50;;;6.93;;
16502;SDS011;53067;48.114;11.694;2023-03-08T02:39:09;7.40;;;6.07;;
16502;SDS011;53067;48.114;11.694;2023-03-08T02:44:23;11.30;;;6.73;;
16502;SDS011;53067;48.114;11.694;2023-03-08T02:46:51;8.43;;;6.83;;
16502;SDS011;53067;48.114;11.694;2023-03-08T02:49:18;7.70;;;6.50;;
16502;SDS011;53067;48.114;11.694;2023-03-08T02:51:46;8.97;;;6.37;;
16502;SDS011;53067;48.114;11.694;2023-03-08T02:54:13;9.60;;;7.13;;
16502;SDS011;53067;48.114;11.694;2023-03-08T02:56:41;9.20;;;6.50;;
16502;SDS011;53067;48.114;11.694;2023-03-08T02:59:08;9.13;;;6.93;;
16502;SDS011;53067;48.114;11.694;2023-03-08T03:01:36;7.77;;;6.33;;
16502;SDS011;53067;48.114;11.694;2023-03-08T03:04:03;8.57;;;6.80;;
16502;SDS011;53067;48.114;11.694;2023-03-08T03:06:31;8.67;;;6.67;;
16502;SDS011;53067;48.114;11.694;2023-03-08T03:08:59;10.40;;;7.13;;
16502;SDS011;53067;48.114;11.694;2023-03-08T03:11:26;8.47;;;6.87;;
16502;SDS011;53067;48.114;11.694;2023-03-08T03:13:55;8.20;;;6.13;;
16502;SDS011;53067;48.114;11.694;2023-03-08T03:16:24;10.53;;;7.37;;
16502;SDS011;53067;48.114;11.694;2023-03-08T03:18:53;9.20;;;7.07;;
16502;SDS011;53067;48.114;11.694;2023-03-08T03:21:21;11.40;;;7.57;;
16502;SDS011;53067;48.114;11.694;2023-03-08T03:23:50;12.23;;;7.77;;
16502;SDS011;53067;48.114;11.694;2023-03-08T03:26:20;11.93;;;6.97;;
16502;SDS011;53067;48.114;11.694;2023-03-08T03:28:48;8.60;;;6.77;;
16502;SDS011;53067;48.114;11.694;2023-03-08T03:31:18;8.40;;;6.70;;
16502;SDS011;53067;48.114;11.694;2023-03-08T03:33:47;10.63;;;7.30;;
16502;SDS011;53067;48.114;11.694;2023-03-08T03:36:17;9.83;;;6.77;;
16502;SDS011;53067;48.114;11.694;2023-03-08T03:38:47;11.00;;;7.00;;
16502;SDS011;53067;48.114;11.694;2023-03-08T03:41:16;10.67;;;7.10;;
16502;SDS011;53067;48.114;11.694;2023-03-08T03:44:03;9.87;;;7.20;;
16502;SDS011;53067;48.114;11.694;2023-03-08T03:46:31;11.03;;;7.40;;
16502;SDS011;53067;48.114;11.694;2023-03-08T03:48:58;10.93;;;7.87;;
16502;SDS011;53067;48.114;11.694;2023-03-08T03:51:26;10.93;;;7.33;;
16502;SDS011;53067;48.114;11.694;2023-03-08T03:53:53;10.23;;;7.20;;
16502;SDS011;53067;48.114;11.694;2023-03-08T03:56:23;12.60;;;7.77;;
16502;SDS011;53067;48.114;11.694;2023-03-08T03:58:53;10.20;;;7.53;;
16502;SDS011;53067;48.114;11.694;2023-03-08T04:01:26;9.17;;;6.87;;
16502;SDS011;53067;48.114;11.694;2023-03-08T04:03:51;10.07;;;7.00;;
16502;SDS011;53067;48.114;11.694;2023-03-08T04:06:20;13.27;;;7.43;;
16502;SDS011;53067;48.114;11.694;2023-03-08T04:11:41;8.20;;;7.33;;
16502;SDS011;53067;48.114;11.694;2023-03-08T04:16:55;10.77;;;7.13;;
16502;SDS011;53067;48.114;11.694;2023-03-08T04:19:23;12.23;;;7.50;;
16502;SDS011;53067;48.114;11.694;2023-03-08T04:21:50;13.70;;;7.30;;
16502;SDS011;53067;48.114;11.694;2023-03-08T04:24:18;10.33;;;7.60;;
16502;SDS011;53067;48.114;11.694;2023-03-08T04:26:45;11.67;;;7.73;;
16502;SDS011;53067;48.114;11.694;2023-03-08T04:29:13;13.80;;;8.10;;
16502;SDS011;53067;48.114;11.694;2023-03-08T04:31:40;13.17;;;8.90;;
16502;SDS011;53067;48.114;11.694;2023-03-08T04:34:08;12.23;;;8.53;;
16502;SDS011;53067;48.114;11.694;2023-03-08T04:36:36;13.03;;;8.13;;
16502;SDS011;53067;48.114;11.694;2023-03-08T04:39:03;12.20;;;9.10;;
16502;SDS011;53067;48.114;11.694;2023-03-08T04:41:31;12.87;;;7.77;;
16502;SDS011;53067;48.114;11.694;2023-03-08T04:43:58;11.50;;;7.20;;
16502;SDS011;53067;48.114;11.694;2023-03-08T04:46:26;10.80;;;7.27;;
16502;SDS011;53067;48.114;11.694;2023-03-08T04:48:54;12.00;;;8.80;;
16502;SDS011;53067;48.114;11.694;2023-03-08T04:51:22;10.83;;;7.83;;
16502;SDS011;53067;48.114;11.694;2023-03-08T04:53:51;12.87;;;8.23;;
16502;SDS011;53067;48.114;11.694;2023-03-08T04:56:19;11.93;;;7.93;;
16502;SDS011;53067;48.114;11.694;2023-03-08T04:58:47;12.40;;;8.70;;
16502;SDS011;53067;48.114;11.694;2023-03-08T05:01:16;11.83;;;8.27;;
16502;SDS011;53067;48.114;11.694;2023-03-08T05:03:46;11.80;;;8.40;;
16502;SDS011;53067;48.114;11.694;2023-03-08T05:06:14;14.27;;;9.23;;
16502;SDS011;53067;48.114;11.694;2023-03-08T05:08:43;10.20;;;8.60;;
16502;SDS011;53067;48.114;11.694;2023-03-08T05:11:14;13.23;;;8.90;;
16502;SDS011;53067;48.114;11.694;2023-03-08T05:13:47;10.13;;;7.60;;
16502;SDS011;53067;48.114;11.694;2023-03-08T05:16:15;13.37;;;8.07;;
16502;SDS011;53067;48.114;11.694;2023-03-08T05:18:42;11.27;;;7.67;;
16502;SDS011;53067;48.114;11.694;2023-03-08T05:21:11;11.77;;;7.67;;
16502;SDS011;53067;48.114;11.694;2023-03-08T05:23:40;11.93;;;8.30;;
16502;SDS011;53067;48.114;11.694;2023-03-08T05:26:10;10.87;;;8.03;;
16502;SDS011;53067;48.114;11.694;2023-03-08T05:28:59;12.77;;;8.70;;
16502;SDS011;53067;48.114;11.694;2023-03-08T05:31:30;13.97;;;8.20;;
16502;SDS011;53067;48.114;11.694;2023-03-08T05:33:58;12.60;;;8.83;;
16502;SDS011;53067;48.114;11.694;2023-03-08T05:36:26;15.97;;;9.50;;
16502;SDS011;53067;48.114;11.694;2023-03-08T05:38:53;14.83;;;8.93;;
16502;SDS011;53067;48.114;11.694;2023-03-08T05:41:21;14.23;;;9.13;;
16502;SDS011;53067;48.114;11.694;2023-03-08T05:43:48;11.37;;;8.20;;
16502;SDS011;53067;48.114;11.694;2023-03-08T05:46:17;14.60;;;9.20;;
16502;SDS011;53067;48.114;11.694;2023-03-08T05:48:45;14.70;;;9.37;;
16502;SDS011;53067;48.114;11.694;2023-03-08T05:51:13;13.70;;;9.10;;
16502;SDS011;53067;48.114;11.694;2023-03-08T05:53:42;17.13;;;8.90;;
16502;SDS011;53067;48.114;11.694;2023-03-08T05:56:11;18.73;;;9.93;;
16502;SDS011;53067;48.114;11.694;2023-03-08T05:58:40;15.67;;;10.13;;
16502;SDS011;53067;48.114;11.694;2023-03-08T06:01:13;10.83;;;8.60;;
16502;SDS011;53067;48.114;11.694;2023-03-08T06:03:43;12.93;;;8.83;;
16502;SDS011;53067;48.114;11.694;2023-03-08T06:06:12;15.40;;;9.87;;
16502;SDS011;53067;48.114;11.694;2023-03-08T06:08:40;13.93;;;9.50;;
16502;SDS011;53067;48.114;11.694;2023-03-08T06:11:08;16.17;;;10.27;;
16502;SDS011;53067;48.114;11.694;2023-03-08T06:13:36;15.83;;;9.60;;
16502;SDS011;53067;48.114;11.694;2023-03-08T06:16:04;17.03;;;10.33;;
16502;SDS011;53067;48.114;11.694;2023-03-08T06:18:32;15.57;;;9.93;;
16502;SDS011;53067;48.114;11.694;2023-03-08T06:21:19;11.97;;;9.20;;
16502;SDS011;53067;48.114;11.694;2023-03-08T06:23:47;17.27;;;10.27;;
16502;SDS011;53067;48.114;11.694;2023-03-08T06:26:15;16.57;;;10.00;;
16502;SDS011;53067;48.114;11.694;2023-03-08T06:28:43;14.37;;;9.87;;
16502;SDS011;53067;48.114;11.694;2023-03-08T06:31:12;18.67;;;10.57;;
16502;SDS011;53067;48.114;11.694;2023-03-08T06:33:41;15.03;;;10.37;;
16502;SDS011;53067;48.114;11.694;2023-03-08T06:36:18;17.43;;;10.77;;
16502;SDS011;53067;48.114;11.694;2023-03-08T06:38:47;16.77;;;9.70;;
16502;SDS011;53067;48.114;11.694;2023-03-08T06:41:16;15.87;;;10.50;;
16502;SDS011;53067;48.114;11.694;2023-03-08T06:43:44;15.23;;;10.00;;
16502;SDS011;53067;48.114;11.694;2023-03-08T06:46:13;15.47;;;10.47;;
16502;SDS011;53067;48.114;11.694;2023-03-08T06:48:42;14.17;;;10.50;;
16502;SDS011;53067;48.114;11.694;2023-03-08T06:51:10;14.50;;;10.17;;
16502;SDS011;53067;48.114;11.694;2023-03-08T06:53:38;17.93;;;10.47;;
16502;SDS011;53067;48.114;11.694;2023-03-08T06:56:06;15.57;;;10.67;;
16502;SDS011;53067;48.114;11.694;2023-03-08T06:58:36;15.40;;;10.23;;
16502;SDS011;53067;48.114;11.694;2023-03-08T07:01:10;17.17;;;10.00;;
16502;SDS011;53067;48.114;11.694;2023-03-08T07:03:39;17.90;;;10.20;;
16502;SDS011;53067;48.114;11.694;2023-03-08T07:06:08;14.80;;;9.50;;
16502;SDS011;53067;48.114;11.694;2023-03-08T07:08:36;25.27;;;10.47;;
16502;SDS011;53067;48.114;11.694;2023-03-08T07:11:05;15.60;;;9.67;;
16502;SDS011;53067;48.114;11.694;2023-03-08T07:13:41;16.67;;;9.90;;
16502;SDS011;53067;48.114;11.694;2023-03-08T07:16:12;17.40;;;9.37;;
16502;SDS011;53067;48.114;11.694;2023-03-08T07:18:45;12.17;;;9.33;;
16502;SDS011;53067;48.114;11.694;2023-03-08T07:21:12;17.83;;;10.07;;
16502;SDS011;53067;48.114;11.694;2023-03-08T07:23:39;14.17;;;9.03;;
16502;SDS011;53067;48.114;11.694;2023-03-08T07:26:09;11.80;;;9.47;;
16502;SDS011;53067;48.114;11.694;2023-03-08T07:28:36;14.03;;;9.10;;
16502;SDS011;53067;48.114;11.694;2023-03-08T07:31:04;11.67;;;8.93;;
16502;SDS011;53067;48.114;11.694;2023-03-08T07:33:32;13.27;;;9.13;;
16502;SDS011;53067;48.114;11.694;2023-03-08T07:36:04;13.10;;;9.13;;
16502;SDS011;53067;48.114;11.694;2023-03-08T07:38:32;14.77;;;9.43;;
16502;SDS011;53067;48.114;11.694;2023-03-08T07:40:59;15.27;;;10.80;;
16502;SDS011;53067;48.114;11.694;2023-03-08T07:43:27;19.73;;;10.20;;
16502;SDS011;53067;48.114;11.694;2023-03-08T07:45:54;13.27;;;9.90;;
16502;SDS011;53067;48.114;11.694;2023-03-08T07:48:27;13.63;;;9.27;;
16502;SDS011;53067;48.114;11.694;2023-03-08T07:51:05;14.37;;;10.43;;
16502;SDS011;53067;48.114;11.694;2023-03-08T07:53:35;14.13;;;9.03;;
16502;SDS011;53067;48.114;11.694;2023-03-08T07:56:03;17.67;;;10.50;;
16502;SDS011;53067;48.114;11.694;2023-03-08T07:58:31;11.70;;;9.40;;
16502;SDS011;53067;48.114;11.694;2023-03-08T08:00:58;12.97;;;9.73;;
16502;SDS011;53067;48.114;11.694;2023-03-08T08:03:27;13.50;;;9.77;;
16502;SDS011;53067;48.114;11.694;2023-03-08T08:05:55;12.57;;;8.80;;
16502;SDS011;53067;48.114;11.694;2023-03-08T08:08:22;14.43;;;9.87;;
16502;SDS011;53067;48.114;11.694;2023-03-08T08:10:50;12.40;;;9.50;;
16502;SDS011;53067;48.114;11.694;2023-03-08T08:13:17;11.43;;;8.90;;
16502;SDS011;53067;48.114;11.694;2023-03-08T08:15:45;15.17;;;9.20;;
16502;SDS011;53067;48.114;11.694;2023-03-08T08:18:13;12.77;;;8.40;;
16502;SDS011;53067;48.114;11.694;2023-03-08T08:20:40;12.97;;;8.23;;
16502;SDS011;53067;48.114;11.694;2023-03-08T08:23:09;15.77;;;8.87;;
16502;SDS011;53067;48.114;11.694;2023-03-08T08:25:37;12.37;;;8.53;;
16502;SDS011;53067;48.114;11.694;2023-03-08T08:28:05;12.70;;;8.07;;
16502;SDS011;53067;48.114;11.694;2023-03-08T08:30:32;10.23;;;8.13;;
16502;SDS011;53067;48.114;11.694;2023-03-08T08:33:00;11.00;;;7.90;;
16502;SDS011;53067;48.114;11.694;2023-03-08T08:35:28;9.97;;;7.93;;
16502;SDS011;53067;48.114;11.694;2023-03-08T08:37:55;10.07;;;7.73;;
16502;SDS011;53067;48.114;11.694;2023-03-08T08:40:23;10.90;;;7.77;;
16502;SDS011;53067;48.114;11.694;2023-03-08T08:42:50;11.03;;;8.60;;
16502;SDS011;53067;48.114;11.694;2023-03-08T08:45:18;9.43;;;7.63;;
16502;SDS011;53067;48.114;11.694;2023-03-08T08:47:45;13.27;;;8.20;;
16502;SDS011;53067;48.114;11.694;2023-03-08T08:50:13;10.40;;;7.07;;
16502;SDS011;53067;48.114;11.694;2023-03-08T08:52:40;11.07;;;7.93;;
16502;SDS011;53067;48.114;11.694;2023-03-08T08:55:08;10.67;;;7.77;;
16502;SDS011;53067;48.114;11.694;2023-03-08T08:57:40;11.37;;;8.47;;
16502;SDS011;53067;48.114;11.694;2023-03-08T09:00:10;9.67;;;7.53;;
16502;SDS011;53067;48.114;11.694;2023-03-08T09:02:54;9.60;;;7.97;;
16502;SDS011;53067;48.114;11.694;2023-03-08T09:05:22;9.83;;;7.87;;
16502;SDS011;53067;48.114;11.694;2023-03-08T09:07:52;13.87;;;9.00;;
16502;SDS011;53067;48.114;11.694;2023-03-08T09:10:19;11.70;;;8.87;;
16502;SDS011;53067;48.114;11.694;2023-03-08T09:12:47;14.47;;;9.70;;
16502;SDS011;53067;48.114;11.694;2023-03-08T09:15:15;14.60;;;9.40;;
16502;SDS011;53067;48.114;11.694;2023-03-08T09:17:57;13.63;;;9.33;;
16502;SDS011;53067;48.114;11.694;2023-03-08T09:20:26;14.63;;;9.60;;
16502;SDS011;53067;48.114;11.694;2023-03-08T09:22:53;14.37;;;10.10;;
16502;SDS011;53067;48.114;11.694;2023-03-08T09:25:21;13.13;;;9.90;;
16502;SDS011;53067;48.114;11.694;2023-03-08T09:27:49;12.50;;;9.90;;
16502;SDS011;53067;48.114;11.694;2023-03-08T09:30:17;12.60;;;9.30;;
16502;SDS011;53067;48.114;11.694;2023-03-08T09:32:45;14.07;;;9.53;;
16502;SDS011;53067;48.114;11.694;2023-03-08T09:35:13;15.80;;;10.27;;
16502;SDS011;53067;48.114;11.694;2023-03-08T09:37:40;13.40;;;9.60;;
16502;SDS011;53067;48.114;11.694;2023-03-08T09:40:12;13.37;;;10.27;;
16502;SDS011;53067;48.114;11.694;2023-03-08T09:42:43;13.03;;;10.30;;
16502;SDS011;53067;48.114;11.694;2023-03-08T09:53:19;15.40;;;10.60;;
16502;SDS011;53067;48.114;11.694;2023-03-08T09:56:07;13.90;;;10.90;;
16502;SDS011;53067;48.114;11.694;2023-03-08T09:58:47;14.10;;;10.77;;
16502;SDS011;53067;48.114;11.694;2023-03-08T10:01:37;14.70;;;10.03;;
16502;SDS011;53067;48.114;11.694;2023-03-08T10:04:30;16.00;;;10.80;;
16502;SDS011;53067;48.114;11.694;2023-03-08T10:07:26;14.13;;;10.50;;
16502;SDS011;53067;48.114;11.694;2023-03-08T10:10:15;13.80;;;10.07;;
16502;SDS011;53067;48.114;11.694;2023-03-08T10:12:48;14.87;;;10.70;;
16502;SDS011;53067;48.114;11.694;2023-03-08T10:15:30;18.30;;;10.47;;
16502;SDS011;53067;48.114;11.694;2023-03-08T10:18:15;16.30;;;11.37;;
16502;SDS011;53067;48.114;11.694;2023-03-08T10:20:45;14.97;;;11.07;;
16502;SDS011;53067;48.114;11.694;2023-03-08T10:23:15;15.43;;;10.00;;
16502;SDS011;53067;48.114;11.694;2023-03-08T10:25:45;13.67;;;10.03;;
16502;SDS011;53067;48.114;11.694;2023-03-08T10:28:16;15.37;;;10.20;;
16502;SDS011;53067;48.114;11.694;2023-03-08T10:30:46;12.17;;;9.87;;
16502;SDS011;53067;48.114;11.694;2023-03-08T10:33:16;14.77;;;9.93;;
16502;SDS011;53067;48.114;11.694;2023-03-08T10:35:56;12.43;;;10.27;;
16502;SDS011;53067;48.114;11.694;2023-03-08T10:38:30;12.87;;;9.40;;
16502;SDS011;53067;48.114;11.694;2023-03-08T10:41:10;14.17;;;9.80;;
16502;SDS011;53067;48.114;11.694;2023-03-08T10:43:40;13.47;;;10.80;;
16502;SDS011;53067;48.114;11.694;2023-03-08T10:46:13;14.97;;;10.60;;
16502;SDS011;53067;48.114;11.694;2023-03-08T10:48:42;15.67;;;11.00;;
16502;SDS011;53067;48.114;11.694;2023-03-08T10:51:15;12.67;;;9.77;;
16502;SDS011;53067;48.114;11.694;2023-03-08T10:53:54;14.80;;;10.67;;
16502;SDS011;53067;48.114;11.694;2023-03-08T10:59:04;14.30;;;10.43;;
16502;SDS011;53067;48.114;11.694;2023-03-08T11:01:46;13.83;;;10.03;;
16502;SDS011;53067;48.114;11.694;2023-03-08T11:04:12;15.23;;;10.73;;
16502;SDS011;53067;48.114;11.694;2023-03-08T11:06:50;8.47;;;7.33;;
16502;SDS011;53067;48.114;11.694;2023-03-08T11:09:32;10.03;;;7.43;;
16502;SDS011;53067;48.114;11.694;2023-03-08T11:11:59;12.60;;;9.57;;
16502;SDS011;53067;48.114;11.694;2023-03-08T11:14:27;14.53;;;10.67;;
16502;SDS011;53067;48.114;11.694;2023-03-08T11:17:04;14.17;;;10.87;;
16502;SDS011;53067;48.114;11.694;2023-03-08T11:25:02;13.47;;;9.90;;
16502;SDS011;53067;48.114;11.694;2023-03-08T11:36:15;12.30;;;9.03;;
16502;SDS011;53067;48.114;11.694;2023-03-08T11:38:44;9.07;;;7.43;;
16502;SDS011;53067;48.114;11.694;2023-03-08T11:41:38;9.37;;;7.87;;
16502;SDS011;53067;48.114;11.694;2023-03-08T11:44:44;11.13;;;8.37;;
16502;SDS011;53067;48.114;11.694;2023-03-08T11:47:22;9.57;;;7.43;;
16502;SDS011;53067;48.114;11.694;2023-03-08T12:01:05;8.73;;;7.10;;
16502;SDS011;53067;48.114;11.694;2023-03-08T12:03:35;9.27;;;7.23;;
16502;SDS011;53067;48.114;11.694;2023-03-08T12:06:11;9.37;;;7.23;;
16502;SDS011;53067;48.114;11.694;2023-03-08T12:08:42;11.07;;;6.73;;
16502;SDS011;53067;48.114;11.694;2023-03-08T12:11:21;11.23;;;6.90;;
16502;SDS011;53067;48.114;11.694;2023-03-08T12:13:56;7.80;;;6.40;;
16502;SDS011;53067;48.114;11.694;2023-03-08T12:16:25;8.80;;;7.13;;
16502;SDS011;53067;48.114;11.694;2023-03-08T12:19:23;8.50;;;6.60;;
16502;SDS011;53067;48.114;11.694;2023-03-08T12:27:48;10.60;;;6.60;;
16502;SDS011;53067;48.114;11.694;2023-03-08T12:33:00;8.57;;;6.80;;
16502;SDS011;53067;48.114;11.694;2023-03-08T12:35:31;7.53;;;6.17;;
16502;SDS011;53067;48.114;11.694;2023-03-08T12:38:02;7.07;;;6.07;;
16502;SDS011;53067;48.114;11.694;2023-03-08T12:40:37;8.10;;;5.77;;
16502;SDS011;53067;48.114;11.694;2023-03-08T12:43:13;9.30;;;5.70;;
16502;SDS011;53067;48.114;11.694;2023-03-08T12:48:34;5.50;;;5.00;;
16502;SDS011;53067;48.114;11.694;2023-03-08T12:53:59;5.90;;;4.77;;
16502;SDS011;53067;48.114;11.694;2023-03-08T12:56:30;4.97;;;3.97;;
16502;SDS011;53067;48.114;11.694;2023-03-08T12:59:23;6.43;;;4.70;;
16502;SDS011;53067;48.114;11.694;2023-03-08T13:04:32;7.90;;;4.70;;
16502;SDS011;53067;48.114;11.694;2023-03-08T13:09:58;5.40;;;4.90;;
16502;SDS011;53067;48.114;11.694;2023-03-08T13:12:49;4.63;;;4.10;;
16502;SDS011;53067;48.114;11.694;2023-03-08T13:15:28;6.00;;;4.17;;
16502;SDS011;53067;48.114;11.694;2023-03-08T13:18:00;5.77;;;5.17;;
16502;SDS011;53067;48.114;11.694;2023-03-08T13:20:44;6.33;;;4.70;;
16502;SDS011;53067;48.114;11.694;2023-03-08T13:25:52;5.13;;;3.93;;
16502;SDS011;53067;48.114;11.694;2023-03-08T13:28:26;4.30;;;3.33;;
16502;SDS011;53067;48.114;11.694;2023-03-08T13:33:53;1.67;;;1.57;;
16502;SDS011;53067;48.114;11.694;2023-03-08T13:39:00;0.97;;;0.90;;
16502;SDS011;53067;48.114;11.694;2023-03-08T13:41:39;1.03;;;1.00;;
16502;SDS011;53067;48.114;11.694;2023-03-08T13:44:24;0.77;;;0.77;;
16502;SDS011;53067;48.114;11.694;2023-03-08T13:46:56;0.70;;;0.70;;
16502;SDS011;53067;48.114;11.694;2023-03-08T13:49:27;0.67;;;0.67;;
16502;SDS011;53067;48.114;11.694;2023-03-08T13:51:56;1.83;;;0.60;;
16502;SDS011;53067;48.114;11.694;2023-03-08T13:54:30;4.00;;;0.63;;
16502;SDS011;53067;48.114;11.694;2023-03-08T13:57:00;0.50;;;0.50;;
16502;SDS011;53067;48.114;11.694;2023-03-08T13:59:30;1.60;;;0.60;;
16502;SDS011;53067;48.114;11.694;2023-03-08T14:02:00;0.67;;;0.67;;
16502;SDS011;53067;48.114;11.694;2023-03-08T14:04:28;2.43;;;0.63;;
16502;SDS011;53067;48.114;11.694;2023-03-08T14:06:57;0.60;;;0.60;;
16502;SDS011;53067;48.114;11.694;2023-03-08T14:09:26;3.13;;;0.70;;
16502;SDS011;53067;48.114;11.694;2023-03-08T14:11:58;1.07;;;0.57;;
16502;SDS011;53067;48.114;11.694;2023-03-08T14:14:31;0.60;;;0.60;;
16502;SDS011;53067;48.114;11.694;2023-03-08T14:17:00;0.57;;;0.53;;
16502;SDS011;53067;48.114;11.694;2023-03-08T14:19:30;0.93;;;0.80;;
16502;SDS011;53067;48.114;11.694;2023-03-08T14:22:07;2.83;;;0.90;;
16502;SDS011;53067;48.114;11.694;2023-03-08T14:24:43;1.60;;;0.70;;
16502;SDS011;53067;48.114;11.694;2023-03-08T14:30:11;0.87;;;0.63;;
16502;SDS011;53067;48.114;11.694;2023-03-08T14:32:57;1.20;;;0.60;;
16502;SDS011;53067;48.114;11.694;2023-03-08T14:35:35;0.90;;;0.80;;
16502;SDS011;53067;48.114;11.694;2023-03-08T14:38:12;0.90;;;0.90;;
16502;SDS011;53067;48.114;11.694;2023-03-08T14:40:48;0.63;;;0.63;;
16502;SDS011;53067;48.114;11.694;2023-03-08T14:43:32;0.80;;;0.73;;
16502;SDS011;53067;48.114;11.694;2023-03-08T14:46:00;1.43;;;0.80;;
16502;SDS011;53067;48.114;11.694;2023-03-08T14:53:58;0.80;;;0.80;;
16502;SDS011;53067;48.114;11.694;2023-03-08T14:56:28;0.70;;;0.70;;
16502;SDS011;53067;48.114;11.694;2023-03-08T14:58:58;1.60;;;1.27;;
16502;SDS011;53067;48.114;11.694;2023-03-08T15:01:36;1.80;;;1.70;;
16502;SDS011;53067;48.114;11.694;2023-03-08T15:04:12;2.47;;;1.17;;
16502;SDS011;53067;48.114;11.694;2023-03-08T15:06:37;4.27;;;1.13;;
16502;SDS011;53067;48.114;11.694;2023-03-08T15:09:06;0.57;;;0.57;;
16502;SDS011;53067;48.114;11.694;2023-03-08T15:11:34;2.33;;;1.17;;
16502;SDS011;53067;48.114;11.694;2023-03-08T15:14:15;0.80;;;0.80;;
16502;SDS011;53067;48.114;11.694;2023-03-08T15:16:43;2.20;;;0.80;;
16502;SDS011;53067;48.114;11.694;2023-03-08T15:19:10;2.80;;;0.80;;
16502;SDS011;53067;48.114;11.694;2023-03-08T15:21:38;1.13;;;1.03;;
16502;SDS011;53067;48.114;11.694;2023-03-08T15:26:53;4.43;;;1.83;;
16502;SDS011;53067;48.114;11.694;2023-03-08T15:29:26;1.70;;;0.93;;
16502;SDS011;53067;48.114;11.694;2023-03-08T15:31:55;1.37;;;1.00;;
16502;SDS011;53067;48.114;11.694;2023-03-08T15:34:23;2.03;;;0.90;;
16502;SDS011;53067;48.114;11.694;2023-03-08T15:36:52;0.83;;;0.70;;
16502;SDS011;53067;48.114;11.694;2023-03-08T15:39:20;0.83;;;0.83;;
16502;SDS011;53067;48.114;11.694;2023-03-08T15:41:48;1.70;;;0.90;;
16502;SDS011;53067;48.114;11.694;2023-03-08T15:44:15;2.17;;;0.80;;
16502;SDS011;53067;48.114;11.694;2023-03-08T15:46:45;1.70;;;0.90;;
16502;SDS011;53067;48.114;11.694;2023-03-08T15:49:12;0.93;;;0.87;;
16502;SDS011;53067;48.114;11.694;2023-03-08T15:51:40;1.03;;;1.00;;
16502;SDS011;53067;48.114;11.694;2023-03-08T15:54:09;0.83;;;0.70;;
16502;SDS011;53067;48.114;11.694;2023-03-08T15:56:37;1.00;;;1.00;;
16502;SDS011;53067;48.114;11.694;2023-03-08T15:59:04;1.13;;;1.00;;
16502;SDS011;53067;48.114;11.694;2023-03-08T16:01:32;0.90;;;0.80;;
16502;SDS011;53067;48.114;11.694;2023-03-08T16:03:59;1.70;;;1.57;;
16502;SDS011;53067;48.114;11.694;2023-03-08T16:06:27;0.83;;;0.83;;
16502;SDS011;53067;48.114;11.694;2023-03-08T16:08:55;3.57;;;2.73;;